sensor_id;sensor_type;location;lat;lon;timestamp;pressure;altitude;pressure_sealevel;temperature;humidity
53868;BME280;41577;47.470;19.080;2022-12-17T00:10:25;99595.03;;;1.49;100.00
53868;BME280;41577;47.470;19.080;2022-12-17T00:25:27;99612.94;;;1.35;100.00
53868;BME280;41577;47.470;19.080;2022-12-17T00:40:30;99573.75;;;1.04;100.00
53868;BME280;41577;47.470;19.080;2022-12-17T00:55:32;99636.59;;;0.98;100.00
53868;BME280;41577;47.470;19.080;2022-12-17T01:10:35;99674.63;;;1.13;100.00
53868;BME280;41577;47.470;19.080;2022-12-17T01:25:37;99698.97;;;1.15;100.00
53868;BME280;41577;47.470;19.080;2022-12-17T01:40:39;99728.31;;;1.30;100.00
53868;BME280;41577;47.470;19.080;2022-12-17T01:55:42;99734.91;;;1.44;100.00
53868;BME280;41577;47.470;19.080;2022-12-17T02:10:50;99729.13;;;1.68;100.00
53868;BME280;41577;47.470;19.080;2022-12-17T02:25:58;99733.06;;;1.54;100.00
53868;BME280;41577;47.470;19.080;2022-12-17T02:41:03;99721.63;;;1.36;100.00
53868;BME280;41577;47.470;19.080;2022-12-17T02:56:06;99750.06;;;1.13;100.00
53868;BME280;41577;47.470;19.080;2022-12-17T03:11:11;99786.75;;;0.85;100.00
53868;BME280;41577;47.470;19.080;2022-12-17T03:26:13;99771.69;;;0.87;100.00
53868;BME280;41577;47.470;19.080;2022-12-17T03:41:16;99783.00;;;0.97;100.00
53868;BME280;41577;47.470;19.080;2022-12-17T03:56:18;99819.78;;;0.58;100.00
53868;BME280;41577;47.470;19.080;2022-12-17T04:11:20;99804.13;;;0.37;100.00
53868;BME280;41577;47.470;19.080;2022-12-17T04:26:22;99802.53;;;0.15;100.00
53868;BME280;41577;47.470;19.080;2022-12-17T04:41:24;99846.53;;;-0.08;100.00
53868;BME280;41577;47.470;19.080;2022-12-17T04:56:27;99871.63;;;-0.15;100.00
53868;BME280;41577;47.470;19.080;2022-12-17T05:11:29;99880.63;;;-0.38;100.00
53868;BME280;41577;47.470;19.080;2022-12-17T05:26:31;99904.09;;;-0.37;100.00
53868;BME280;41577;47.470;19.080;2022-12-17T05:41:34;99941.47;;;-0.24;100.00
53868;BME280;41577;47.470;19.080;2022-12-17T05:56:36;99961.25;;;-0.40;100.00
53868;BME280;41577;47.470;19.080;2022-12-17T06:11:38;99968.84;;;-0.37;100.00
53868;BME280;41577;47.470;19.080;2022-12-17T06:26:41;100004.56;;;-0.57;100.00
53868;BME280;41577;47.470;19.080;2022-12-17T06:41:43;100024.63;;;-0.68;100.00
53868;BME280;41577;47.470;19.080;2022-12-17T06:56:45;100057.31;;;-0.83;100.00
53868;BME280;41577;47.470;19.080;2022-12-17T07:11:47;100086.13;;;-0.72;100.00
53868;BME280;41577;47.470;19.080;2022-12-17T07:26:50;100101.63;;;-0.80;100.00
53868;BME280;41577;47.470;19.080;2022-12-17T07:41:52;100140.09;;;-0.58;100.00
53868;BME280;41577;47.470;19.080;2022-12-17T07:57:11;100151.19;;;-0.32;100.00
53868;BME280;41577;47.470;19.080;2022-12-17T08:12:14;100143.63;;;-0.25;100.00
53868;BME280;41577;47.470;19.080;2022-12-17T08:27:16;100191.69;;;-0.13;100.00
53868;BME280;41577;47.470;19.080;2022-12-17T08:42:18;100201.03;;;-0.43;100.00
53868;BME280;41577;47.470;19.080;2022-12-17T08:57:20;100224.06;;;0.19;100.00
53868;BME280;41577;47.470;19.080;2022-12-17T09:12:22;100227.84;;;-0.28;100.00
53868;BME280;41577;47.470;19.080;2022-12-17T09:27:26;100259.94;;;-0.13;100.00
53868;BME280;41577;47.470;19.080;2022-12-17T09:42:31;100272.06;;;0.10;100.00
53868;BME280;41577;47.470;19.080;2022-12-17T09:57:36;100276.25;;;0.02;100.00
53868;BME280;41577;47.470;19.080;2022-12-17T10:12:39;100297.84;;;0.28;99.83
53868;BME280;41577;47.470;19.080;2022-12-17T10:27:41;100336.38;;;0.27;99.11
53868;BME280;41577;47.470;19.080;2022-12-17T10:42:43;100353.66;;;0.41;98.41
53868;BME280;41577;47.470;19.080;2022-12-17T10:57:48;100372.56;;;0.35;95.77
53868;BME280;41577;47.470;19.080;2022-12-17T11:12:53;100423.84;;;0.73;95.86
53868;BME280;41577;47.470;19.080;2022-12-17T11:28:02;100426.72;;;0.70;95.42
53868;BME280;41577;47.470;19.080;2022-12-17T11:43:15;100447.28;;;0.42;96.27
53868;BME280;41577;47.470;19.080;2022-12-17T11:58:25;100486.66;;;0.19;97.08
53868;BME280;41577;47.470;19.080;2022-12-17T12:13:35;100490.50;;;0.38;96.09
53868;BME280;41577;47.470;19.080;2022-12-17T12:28:44;100520.00;;;0.30;96.79
53868;BME280;41577;47.470;19.080;2022-12-17T12:43:53;100526.13;;;0.07;97.39
53868;BME280;41577;47.470;19.080;2022-12-17T12:58:57;100543.28;;;-0.01;97.67
53868;BME280;41577;47.470;19.080;2022-12-17T13:14:05;100577.94;;;0.05;97.63
53868;BME280;41577;47.470;19.080;2022-12-17T13:29:21;100622.72;;;0.14;97.34
53868;BME280;41577;47.470;19.080;2022-12-17T13:44:33;100649.47;;;0.19;97.08
53868;BME280;41577;47.470;19.080;2022-12-17T13:59:37;100657.69;;;0.15;97.29
53868;BME280;41577;47.470;19.080;2022-12-17T14:14:41;100685.41;;;0.19;98.25
53868;BME280;41577;47.470;19.080;2022-12-17T14:29:45;100703.22;;;-0.34;98.21
53868;BME280;41577;47.470;19.080;2022-12-17T14:44:52;100746.28;;;-0.50;99.87
53868;BME280;41577;47.470;19.080;2022-12-17T14:59:59;100773.56;;;-0.65;100.00
53868;BME280;41577;47.470;19.080;2022-12-17T15:15:01;100798.53;;;-0.72;100.00
53868;BME280;41577;47.470;19.080;2022-12-17T15:30:05;100817.19;;;-0.77;100.00
53868;BME280;41577;47.470;19.080;2022-12-17T15:45:11;100841.09;;;-0.81;99.80
53868;BME280;41577;47.470;19.080;2022-12-17T16:00:14;100851.16;;;-0.88;99.59
53868;BME280;41577;47.470;19.080;2022-12-17T16:15:17;100864.66;;;-0.94;100.00
53868;BME280;41577;47.470;19.080;2022-12-17T16:30:19;100901.31;;;-1.07;100.00
53868;BME280;41577;47.470;19.080;2022-12-17T16:45:22;100938.19;;;-1.10;100.00
53868;BME280;41577;47.470;19.080;2022-12-17T17:00:26;100955.69;;;-1.11;100.00
53868;BME280;41577;47.470;19.080;2022-12-17T17:15:28;100964.41;;;-1.10;100.00
53868;BME280;41577;47.470;19.080;2022-12-17T17:30:30;100978.53;;;-1.13;100.00
53868;BME280;41577;47.470;19.080;2022-12-17T17:45:32;101013.56;;;-1.14;100.00
53868;BME280;41577;47.470;19.080;2022-12-17T18:00:36;101012.69;;;-1.14;100.00
53868;BME280;41577;47.470;19.080;2022-12-17T18:15:39;101028.34;;;-1.27;100.00
53868;BME280;41577;47.470;19.080;2022-12-17T18:30:41;101061.84;;;-1.32;100.00
53868;BME280;41577;47.470;19.080;2022-12-17T18:45:44;101086.16;;;-1.44;100.00
53868;BME280;41577;47.470;19.080;2022-12-17T19:00:46;101124.59;;;-1.45;100.00
53868;BME280;41577;47.470;19.080;2022-12-17T19:15:50;101158.66;;;-1.45;100.00
53868;BME280;41577;47.470;19.080;2022-12-17T19:30:55;101181.44;;;-1.17;100.00
53868;BME280;41577;47.470;19.080;2022-12-17T19:46:01;101211.25;;;-1.48;100.00
53868;BME280;41577;47.470;19.080;2022-12-17T20:01:06;101229.84;;;-1.53;100.00
53868;BME280;41577;47.470;19.080;2022-12-17T20:16:09;101244.94;;;-1.58;100.00
53868;BME280;41577;47.470;19.080;2022-12-17T20:31:12;101276.47;;;-1.59;100.00
53868;BME280;41577;47.470;19.080;2022-12-17T20:46:15;101299.53;;;-1.66;100.00
53868;BME280;41577;47.470;19.080;2022-12-17T21:01:20;101327.66;;;-1.70;100.00
53868;BME280;41577;47.470;19.080;2022-12-17T21:16:23;101367.94;;;-1.72;100.00
53868;BME280;41577;47.470;19.080;2022-12-17T21:31:29;101376.41;;;-1.67;100.00
53868;BME280;41577;47.470;19.080;2022-12-17T21:46:31;101379.97;;;-1.68;100.00
53868;BME280;41577;47.470;19.080;2022-12-17T22:01:34;101392.72;;;-1.78;100.00
53868;BME280;41577;47.470;19.080;2022-12-17T22:16:39;101426.22;;;-1.84;100.00
53868;BME280;41577;47.470;19.080;2022-12-17T22:31:42;101457.09;;;-1.91;100.00
53868;BME280;41577;47.470;19.080;2022-12-17T22:46:52;101468.81;;;-1.98;100.00
53868;BME280;41577;47.470;19.080;2022-12-17T23:01:58;101492.69;;;-2.04;100.00
53868;BME280;41577;47.470;19.080;2022-12-17T23:17:00;101520.94;;;-2.11;100.00
53868;BME280;41577;47.470;19.080;2022-12-17T23:32:03;101535.84;;;-2.13;100.00
53868;BME280;41577;47.470;19.080;2022-12-17T23:47:08;101558.56;;;-2.14;100.00
